sensor_id;sensor_type;location;lat;lon;timestamp;P1;durP1;ratioP1;P2;durP2;ratioP2
27127;SDS011;14660;49.008;8.390;2022-11-20T00:01:22;17.52;;;9.77;;
27127;SDS011;14660;49.008;8.390;2022-11-20T00:03:51;15.98;;;8.65;;
27127;SDS011;14660;49.008;8.390;2022-11-20T00:06:19;20.25;;;10.63;;
27127;SDS011;14660;49.008;8.390;2022-11-20T00:08:50;13.27;;;10.02;;
27127;SDS011;14660;49.008;8.390;2022-11-20T00:11:21;14.60;;;10.07;;
27127;SDS011;14660;49.008;8.390;2022-11-20T00:13:55;17.27;;;9.90;;
27127;SDS011;14660;49.008;8.390;2022-11-20T00:16:24;14.98;;;9.07;;
27127;SDS011;14660;49.008;8.390;2022-11-20T00:18:52;15.13;;;9.45;;
27127;SDS011;14660;49.008;8.390;2022-11-20T00:21:21;19.27;;;10.45;;
27127;SDS011;14660;49.008;8.390;2022-11-20T00:23:50;17.92;;;9.32;;
27127;SDS011;14660;49.008;8.390;2022-11-20T00:29:00;13.93;;;8.05;;
27127;SDS011;14660;49.008;8.390;2022-11-20T00:31:28;16.38;;;8.82;;
27127;SDS011;14660;49.008;8.390;2022-11-20T00:33:56;16.35;;;9.80;;
27127;SDS011;14660;49.008;8.390;2022-11-20T00:36:24;13.80;;;8.45;;
27127;SDS011;14660;49.008;8.390;2022-11-20T00:38:53;16.67;;;8.90;;
27127;SDS011;14660;49.008;8.390;2022-11-20T00:41:26;16.50;;;9.27;;
27127;SDS011;14660;49.008;8.390;2022-11-20T00:43:54;18.90;;;9.90;;
27127;SDS011;14660;49.008;8.390;2022-11-20T00:46:23;15.82;;;8.82;;
27127;SDS011;14660;49.008;8.390;2022-11-20T00:48:52;15.52;;;8.70;;
27127;SDS011;14660;49.008;8.390;2022-11-20T00:51:23;16.08;;;9.13;;
27127;SDS011;14660;49.008;8.390;2022-11-20T00:53:51;16.58;;;8.43;;
27127;SDS011;14660;49.008;8.390;2022-11-20T00:56:18;17.63;;;8.70;;
27127;SDS011;14660;49.008;8.390;2022-11-20T00:58:46;16.65;;;10.40;;
27127;SDS011;14660;49.008;8.390;2022-11-20T01:04:00;16.95;;;8.63;;
27127;SDS011;14660;49.008;8.390;2022-11-20T01:09:12;12.30;;;7.53;;
27127;SDS011;14660;49.008;8.390;2022-11-20T01:11:42;16.13;;;9.25;;
27127;SDS011;14660;49.008;8.390;2022-11-20T01:14:11;13.52;;;8.07;;
27127;SDS011;14660;49.008;8.390;2022-11-20T01:16:43;14.67;;;8.13;;
27127;SDS011;14660;49.008;8.390;2022-11-20T01:19:16;13.38;;;7.38;;
27127;SDS011;14660;49.008;8.390;2022-11-20T01:21:47;12.48;;;8.13;;
27127;SDS011;14660;49.008;8.390;2022-11-20T01:24:23;15.02;;;8.55;;
27127;SDS011;14660;49.008;8.390;2022-11-20T01:26:58;14.77;;;9.25;;
27127;SDS011;14660;49.008;8.390;2022-11-20T01:29:25;15.02;;;8.38;;
27127;SDS011;14660;49.008;8.390;2022-11-20T01:31:52;12.13;;;7.68;;
27127;SDS011;14660;49.008;8.390;2022-11-20T01:34:28;14.35;;;9.35;;
27127;SDS011;14660;49.008;8.390;2022-11-20T01:37:03;14.85;;;7.90;;
27127;SDS011;14660;49.008;8.390;2022-11-20T01:39:31;14.85;;;9.55;;
27127;SDS011;14660;49.008;8.390;2022-11-20T01:41:57;12.05;;;7.45;;
27127;SDS011;14660;49.008;8.390;2022-11-20T01:47:48;13.82;;;8.57;;
27127;SDS011;14660;49.008;8.390;2022-11-20T01:50:23;11.55;;;7.32;;
27127;SDS011;14660;49.008;8.390;2022-11-20T01:55:44;13.77;;;7.57;;
27127;SDS011;14660;49.008;8.390;2022-11-20T01:58:16;9.32;;;7.32;;
27127;SDS011;14660;49.008;8.390;2022-11-20T02:00:47;10.88;;;6.75;;
27127;SDS011;14660;49.008;8.390;2022-11-20T02:03:15;10.05;;;6.13;;
27127;SDS011;14660;49.008;8.390;2022-11-20T02:08:47;9.82;;;6.28;;
27127;SDS011;14660;49.008;8.390;2022-11-20T02:11:14;10.40;;;7.53;;
27127;SDS011;14660;49.008;8.390;2022-11-20T02:13:42;10.25;;;6.65;;
27127;SDS011;14660;49.008;8.390;2022-11-20T02:16:32;8.13;;;6.22;;
27127;SDS011;14660;49.008;8.390;2022-11-20T02:19:00;10.10;;;7.50;;
27127;SDS011;14660;49.008;8.390;2022-11-20T02:24:36;12.45;;;6.72;;
27127;SDS011;14660;49.008;8.390;2022-11-20T02:29:56;10.10;;;7.38;;
27127;SDS011;14660;49.008;8.390;2022-11-20T02:32:27;10.20;;;5.53;;
27127;SDS011;14660;49.008;8.390;2022-11-20T02:34:57;10.68;;;5.97;;
27127;SDS011;14660;49.008;8.390;2022-11-20T02:37:26;12.40;;;6.65;;
27127;SDS011;14660;49.008;8.390;2022-11-20T02:39:59;7.75;;;5.68;;
27127;SDS011;14660;49.008;8.390;2022-11-20T02:42:27;8.98;;;6.25;;
27127;SDS011;14660;49.008;8.390;2022-11-20T02:44:54;7.60;;;5.43;;
27127;SDS011;14660;49.008;8.390;2022-11-20T02:47:21;10.20;;;6.32;;
27127;SDS011;14660;49.008;8.390;2022-11-20T02:49:48;8.60;;;5.63;;
27127;SDS011;14660;49.008;8.390;2022-11-20T02:52:15;8.35;;;5.60;;
27127;SDS011;14660;49.008;8.390;2022-11-20T02:54:42;9.90;;;6.00;;
27127;SDS011;14660;49.008;8.390;2022-11-20T02:57:08;7.40;;;5.13;;
27127;SDS011;14660;49.008;8.390;2022-11-20T02:59:35;9.77;;;5.43;;
27127;SDS011;14660;49.008;8.390;2022-11-20T03:02:02;8.02;;;5.20;;
27127;SDS011;14660;49.008;8.390;2022-11-20T03:04:29;8.93;;;5.13;;
27127;SDS011;14660;49.008;8.390;2022-11-20T03:06:56;7.60;;;5.93;;
27127;SDS011;14660;49.008;8.390;2022-11-20T03:09:23;10.00;;;5.80;;
27127;SDS011;14660;49.008;8.390;2022-11-20T03:11:50;9.13;;;5.78;;
27127;SDS011;14660;49.008;8.390;2022-11-20T03:14:17;7.07;;;4.70;;
27127;SDS011;14660;49.008;8.390;2022-11-20T03:16:44;9.38;;;5.15;;
27127;SDS011;14660;49.008;8.390;2022-11-20T03:19:11;8.75;;;5.03;;
27127;SDS011;14660;49.008;8.390;2022-11-20T03:21:38;8.40;;;5.35;;
27127;SDS011;14660;49.008;8.390;2022-11-20T03:24:05;8.15;;;4.80;;
27127;SDS011;14660;49.008;8.390;2022-11-20T03:26:33;6.65;;;5.07;;
27127;SDS011;14660;49.008;8.390;2022-11-20T03:29:02;7.15;;;5.13;;
27127;SDS011;14660;49.008;8.390;2022-11-20T03:31:37;7.78;;;4.75;;
27127;SDS011;14660;49.008;8.390;2022-11-20T03:34:07;11.82;;;5.05;;
27127;SDS011;14660;49.008;8.390;2022-11-20T03:36:37;6.22;;;4.38;;
27127;SDS011;14660;49.008;8.390;2022-11-20T03:39:05;8.07;;;4.88;;
27127;SDS011;14660;49.008;8.390;2022-11-20T03:41:36;7.00;;;5.03;;
27127;SDS011;14660;49.008;8.390;2022-11-20T03:44:07;7.18;;;4.80;;
27127;SDS011;14660;49.008;8.390;2022-11-20T03:46:36;7.40;;;4.03;;
27127;SDS011;14660;49.008;8.390;2022-11-20T03:49:03;5.70;;;4.07;;
27127;SDS011;14660;49.008;8.390;2022-11-20T03:51:32;6.97;;;4.25;;
27127;SDS011;14660;49.008;8.390;2022-11-20T03:54:02;6.47;;;4.20;;
27127;SDS011;14660;49.008;8.390;2022-11-20T03:56:32;8.50;;;5.72;;
27127;SDS011;14660;49.008;8.390;2022-11-20T03:59:00;9.65;;;3.75;;
27127;SDS011;14660;49.008;8.390;2022-11-20T04:01:30;6.95;;;4.10;;
27127;SDS011;14660;49.008;8.390;2022-11-20T04:03:59;6.40;;;4.22;;
27127;SDS011;14660;49.008;8.390;2022-11-20T04:06:30;5.60;;;4.10;;
27127;SDS011;14660;49.008;8.390;2022-11-20T04:09:00;5.60;;;4.43;;
27127;SDS011;14660;49.008;8.390;2022-11-20T04:11:32;6.28;;;3.88;;
27127;SDS011;14660;49.008;8.390;2022-11-20T04:14:01;4.93;;;3.50;;
27127;SDS011;14660;49.008;8.390;2022-11-20T04:16:31;7.75;;;3.80;;
27127;SDS011;14660;49.008;8.390;2022-11-20T04:19:00;6.57;;;3.95;;
27127;SDS011;14660;49.008;8.390;2022-11-20T04:21:28;6.25;;;4.93;;
27127;SDS011;14660;49.008;8.390;2022-11-20T04:23:57;5.30;;;4.07;;
27127;SDS011;14660;49.008;8.390;2022-11-20T04:26:24;7.25;;;4.22;;
27127;SDS011;14660;49.008;8.390;2022-11-20T04:28:55;7.22;;;3.97;;
27127;SDS011;14660;49.008;8.390;2022-11-20T04:31:26;7.43;;;3.60;;
27127;SDS011;14660;49.008;8.390;2022-11-20T04:33:53;6.18;;;4.22;;
27127;SDS011;14660;49.008;8.390;2022-11-20T04:36:25;5.63;;;3.83;;
27127;SDS011;14660;49.008;8.390;2022-11-20T04:38:57;7.28;;;3.47;;
27127;SDS011;14660;49.008;8.390;2022-11-20T04:41:29;7.72;;;3.42;;
27127;SDS011;14660;49.008;8.390;2022-11-20T04:43:59;7.30;;;4.30;;
27127;SDS011;14660;49.008;8.390;2022-11-20T04:46:35;6.07;;;4.30;;
27127;SDS011;14660;49.008;8.390;2022-11-20T04:49:05;6.30;;;4.35;;
27127;SDS011;14660;49.008;8.390;2022-11-20T04:51:31;4.50;;;3.55;;
27127;SDS011;14660;49.008;8.390;2022-11-20T04:53:58;5.75;;;3.90;;
27127;SDS011;14660;49.008;8.390;2022-11-20T04:56:25;6.25;;;4.07;;
27127;SDS011;14660;49.008;8.390;2022-11-20T04:58:52;6.07;;;4.10;;
27127;SDS011;14660;49.008;8.390;2022-11-20T05:01:20;6.38;;;4.10;;
27127;SDS011;14660;49.008;8.390;2022-11-20T05:03:48;6.10;;;3.28;;
27127;SDS011;14660;49.008;8.390;2022-11-20T05:06:16;7.70;;;4.30;;
27127;SDS011;14660;49.008;8.390;2022-11-20T05:08:44;9.15;;;3.63;;
27127;SDS011;14660;49.008;8.390;2022-11-20T05:11:14;4.70;;;3.90;;
27127;SDS011;14660;49.008;8.390;2022-11-20T05:13:43;7.15;;;4.30;;
27127;SDS011;14660;49.008;8.390;2022-11-20T05:16:10;4.85;;;3.95;;
27127;SDS011;14660;49.008;8.390;2022-11-20T05:18:40;8.27;;;5.75;;
27127;SDS011;14660;49.008;8.390;2022-11-20T05:21:08;7.63;;;4.60;;
27127;SDS011;14660;49.008;8.390;2022-11-20T05:23:39;6.35;;;4.15;;
27127;SDS011;14660;49.008;8.390;2022-11-20T05:26:08;5.35;;;3.70;;
27127;SDS011;14660;49.008;8.390;2022-11-20T05:28:40;6.43;;;4.13;;
27127;SDS011;14660;49.008;8.390;2022-11-20T05:33:51;5.10;;;3.75;;
27127;SDS011;14660;49.008;8.390;2022-11-20T05:36:18;5.95;;;3.35;;
27127;SDS011;14660;49.008;8.390;2022-11-20T05:38:45;6.07;;;3.42;;
27127;SDS011;14660;49.008;8.390;2022-11-20T05:41:17;6.90;;;4.18;;
27127;SDS011;14660;49.008;8.390;2022-11-20T05:43:45;6.55;;;3.67;;
27127;SDS011;14660;49.008;8.390;2022-11-20T05:46:17;6.80;;;3.97;;
27127;SDS011;14660;49.008;8.390;2022-11-20T05:48:45;5.78;;;4.25;;
27127;SDS011;14660;49.008;8.390;2022-11-20T05:51:13;5.40;;;3.60;;
27127;SDS011;14660;49.008;8.390;2022-11-20T05:53:41;5.40;;;3.55;;
27127;SDS011;14660;49.008;8.390;2022-11-20T05:56:13;7.20;;;3.17;;
27127;SDS011;14660;49.008;8.390;2022-11-20T05:58:42;4.78;;;2.97;;
27127;SDS011;14660;49.008;8.390;2022-11-20T06:01:14;4.30;;;3.47;;
27127;SDS011;14660;49.008;8.390;2022-11-20T06:03:45;4.78;;;2.80;;
27127;SDS011;14660;49.008;8.390;2022-11-20T06:06:14;3.95;;;2.83;;
27127;SDS011;14660;49.008;8.390;2022-11-20T06:08:42;4.15;;;2.60;;
27127;SDS011;14660;49.008;8.390;2022-11-20T06:11:10;5.13;;;2.95;;
27127;SDS011;14660;49.008;8.390;2022-11-20T06:13:39;4.10;;;2.47;;
27127;SDS011;14660;49.008;8.390;2022-11-20T06:16:06;4.35;;;2.60;;
27127;SDS011;14660;49.008;8.390;2022-11-20T06:18:34;4.00;;;2.65;;
27127;SDS011;14660;49.008;8.390;2022-11-20T06:21:01;4.25;;;2.67;;
27127;SDS011;14660;49.008;8.390;2022-11-20T06:23:31;4.10;;;2.63;;
27127;SDS011;14660;49.008;8.390;2022-11-20T06:26:03;5.10;;;2.40;;
27127;SDS011;14660;49.008;8.390;2022-11-20T06:28:31;4.07;;;2.80;;
27127;SDS011;14660;49.008;8.390;2022-11-20T06:30:58;3.30;;;2.42;;
27127;SDS011;14660;49.008;8.390;2022-11-20T06:33:25;6.18;;;3.03;;
27127;SDS011;14660;49.008;8.390;2022-11-20T06:35:57;5.65;;;2.72;;
27127;SDS011;14660;49.008;8.390;2022-11-20T06:38:26;5.80;;;2.70;;
27127;SDS011;14660;49.008;8.390;2022-11-20T06:40:53;5.25;;;2.88;;
27127;SDS011;14660;49.008;8.390;2022-11-20T06:43:21;8.25;;;3.67;;
27127;SDS011;14660;49.008;8.390;2022-11-20T06:45:55;5.28;;;3.60;;
27127;SDS011;14660;49.008;8.390;2022-11-20T06:48:23;5.50;;;3.58;;
27127;SDS011;14660;49.008;8.390;2022-11-20T06:50:52;7.85;;;3.13;;
27127;SDS011;14660;49.008;8.390;2022-11-20T06:53:19;5.60;;;2.88;;
27127;SDS011;14660;49.008;8.390;2022-11-20T06:55:46;4.28;;;3.35;;
27127;SDS011;14660;49.008;8.390;2022-11-20T06:58:14;3.85;;;2.53;;
27127;SDS011;14660;49.008;8.390;2022-11-20T07:00:45;7.82;;;4.28;;
27127;SDS011;14660;49.008;8.390;2022-11-20T07:03:13;3.85;;;2.60;;
27127;SDS011;14660;49.008;8.390;2022-11-20T07:05:40;4.75;;;2.75;;
27127;SDS011;14660;49.008;8.390;2022-11-20T07:08:07;4.80;;;2.63;;
27127;SDS011;14660;49.008;8.390;2022-11-20T07:10:34;4.90;;;2.75;;
27127;SDS011;14660;49.008;8.390;2022-11-20T07:13:01;4.90;;;2.33;;
27127;SDS011;14660;49.008;8.390;2022-11-20T07:15:28;4.95;;;2.42;;
27127;SDS011;14660;49.008;8.390;2022-11-20T07:17:57;5.45;;;2.80;;
27127;SDS011;14660;49.008;8.390;2022-11-20T07:20:25;4.97;;;2.53;;
27127;SDS011;14660;49.008;8.390;2022-11-20T07:22:56;5.03;;;2.83;;
27127;SDS011;14660;49.008;8.390;2022-11-20T07:25:26;4.80;;;3.03;;
27127;SDS011;14660;49.008;8.390;2022-11-20T07:27:57;4.43;;;2.60;;
27127;SDS011;14660;49.008;8.390;2022-11-20T07:30:30;3.30;;;2.70;;
27127;SDS011;14660;49.008;8.390;2022-11-20T07:33:03;4.40;;;2.22;;
27127;SDS011;14660;49.008;8.390;2022-11-20T07:35:30;3.20;;;2.33;;
27127;SDS011;14660;49.008;8.390;2022-11-20T07:38:06;3.58;;;2.53;;
27127;SDS011;14660;49.008;8.390;2022-11-20T07:40:34;6.03;;;2.58;;
27127;SDS011;14660;49.008;8.390;2022-11-20T07:43:01;5.03;;;2.33;;
27127;SDS011;14660;49.008;8.390;2022-11-20T07:45:28;3.58;;;2.65;;
27127;SDS011;14660;49.008;8.390;2022-11-20T07:47:54;5.32;;;2.78;;
27127;SDS011;14660;49.008;8.390;2022-11-20T07:50:21;3.55;;;2.30;;
27127;SDS011;14660;49.008;8.390;2022-11-20T07:52:48;5.53;;;3.38;;
27127;SDS011;14660;49.008;8.390;2022-11-20T07:55:16;4.20;;;2.92;;
27127;SDS011;14660;49.008;8.390;2022-11-20T07:57:43;4.55;;;2.92;;
27127;SDS011;14660;49.008;8.390;2022-11-20T08:00:11;11.27;;;3.28;;
27127;SDS011;14660;49.008;8.390;2022-11-20T08:02:41;5.07;;;3.30;;
27127;SDS011;14660;49.008;8.390;2022-11-20T08:05:08;4.28;;;2.78;;
27127;SDS011;14660;49.008;8.390;2022-11-20T08:07:42;7.03;;;3.58;;
27127;SDS011;14660;49.008;8.390;2022-11-20T08:10:12;6.53;;;2.88;;
27127;SDS011;14660;49.008;8.390;2022-11-20T08:12:47;5.00;;;2.63;;
27127;SDS011;14660;49.008;8.390;2022-11-20T08:15:34;6.95;;;3.28;;
27127;SDS011;14660;49.008;8.390;2022-11-20T08:18:03;5.35;;;3.30;;
27127;SDS011;14660;49.008;8.390;2022-11-20T08:20:32;4.20;;;2.58;;
27127;SDS011;14660;49.008;8.390;2022-11-20T08:23:03;4.25;;;2.67;;
27127;SDS011;14660;49.008;8.390;2022-11-20T08:25:36;7.78;;;3.17;;
27127;SDS011;14660;49.008;8.390;2022-11-20T08:28:06;5.60;;;3.15;;
27127;SDS011;14660;49.008;8.390;2022-11-20T08:30:36;6.45;;;3.38;;
27127;SDS011;14660;49.008;8.390;2022-11-20T08:33:04;5.07;;;3.10;;
27127;SDS011;14660;49.008;8.390;2022-11-20T08:35:35;5.13;;;2.80;;
27127;SDS011;14660;49.008;8.390;2022-11-20T08:38:03;5.63;;;3.08;;
27127;SDS011;14660;49.008;8.390;2022-11-20T08:40:33;6.50;;;2.75;;
27127;SDS011;14660;49.008;8.390;2022-11-20T08:42:58;5.43;;;3.38;;
27127;SDS011;14660;49.008;8.390;2022-11-20T08:45:25;4.72;;;2.67;;
27127;SDS011;14660;49.008;8.390;2022-11-20T08:47:52;6.85;;;4.07;;
27127;SDS011;14660;49.008;8.390;2022-11-20T08:50:25;7.18;;;3.58;;
27127;SDS011;14660;49.008;8.390;2022-11-20T08:52:52;7.63;;;3.10;;
27127;SDS011;14660;49.008;8.390;2022-11-20T08:55:19;4.57;;;2.63;;
27127;SDS011;14660;49.008;8.390;2022-11-20T08:57:46;4.10;;;2.30;;
27127;SDS011;14660;49.008;8.390;2022-11-20T09:00:11;4.78;;;2.53;;
27127;SDS011;14660;49.008;8.390;2022-11-20T09:02:39;3.78;;;3.17;;
27127;SDS011;14660;49.008;8.390;2022-11-20T09:05:06;5.13;;;2.92;;
27127;SDS011;14660;49.008;8.390;2022-11-20T09:07:33;6.00;;;3.28;;
27127;SDS011;14660;49.008;8.390;2022-11-20T09:10:00;6.32;;;4.55;;
27127;SDS011;14660;49.008;8.390;2022-11-20T09:12:26;7.28;;;4.18;;
27127;SDS011;14660;49.008;8.390;2022-11-20T09:14:53;7.10;;;3.78;;
27127;SDS011;14660;49.008;8.390;2022-11-20T09:17:20;4.95;;;3.30;;
27127;SDS011;14660;49.008;8.390;2022-11-20T09:19:47;5.43;;;2.72;;
27127;SDS011;14660;49.008;8.390;2022-11-20T09:22:15;5.88;;;3.58;;
27127;SDS011;14660;49.008;8.390;2022-11-20T09:24:42;4.43;;;2.50;;
27127;SDS011;14660;49.008;8.390;2022-11-20T09:27:09;8.45;;;3.38;;
27127;SDS011;14660;49.008;8.390;2022-11-20T09:29:36;5.25;;;3.28;;
27127;SDS011;14660;49.008;8.390;2022-11-20T09:32:03;4.30;;;2.70;;
27127;SDS011;14660;49.008;8.390;2022-11-20T09:34:30;4.28;;;2.30;;
27127;SDS011;14660;49.008;8.390;2022-11-20T09:36:57;3.63;;;2.47;;
27127;SDS011;14660;49.008;8.390;2022-11-20T09:39:25;4.20;;;2.67;;
27127;SDS011;14660;49.008;8.390;2022-11-20T09:57:19;4.55;;;3.47;;
27127;SDS011;14660;49.008;8.390;2022-11-20T09:59:50;7.50;;;3.55;;
27127;SDS011;14660;49.008;8.390;2022-11-20T10:08:19;6.47;;;3.50;;
27127;SDS011;14660;49.008;8.390;2022-11-20T10:10:54;6.70;;;3.65;;
27127;SDS011;14660;49.008;8.390;2022-11-20T10:31:44;6.60;;;2.88;;
27127;SDS011;14660;49.008;8.390;2022-11-20T10:37:23;6.45;;;3.30;;
27127;SDS011;14660;49.008;8.390;2022-11-20T10:46:08;4.50;;;3.20;;
27127;SDS011;14660;49.008;8.390;2022-11-20T10:48:42;7.00;;;3.38;;
27127;SDS011;14660;49.008;8.390;2022-11-20T11:00:21;4.85;;;3.03;;
27127;SDS011;14660;49.008;8.390;2022-11-20T11:05:51;4.50;;;2.95;;
27127;SDS011;14660;49.008;8.390;2022-11-20T11:08:26;4.78;;;3.53;;
27127;SDS011;14660;49.008;8.390;2022-11-20T11:11:02;9.27;;;3.63;;
27127;SDS011;14660;49.008;8.390;2022-11-20T11:13:51;6.93;;;3.17;;
27127;SDS011;14660;49.008;8.390;2022-11-20T11:19:25;8.90;;;3.05;;
27127;SDS011;14660;49.008;8.390;2022-11-20T11:21:55;4.38;;;2.28;;
27127;SDS011;14660;49.008;8.390;2022-11-20T11:27:17;4.70;;;2.10;;
27127;SDS011;14660;49.008;8.390;2022-11-20T11:29:44;4.78;;;2.20;;
27127;SDS011;14660;49.008;8.390;2022-11-20T11:35:02;6.35;;;2.17;;
27127;SDS011;14660;49.008;8.390;2022-11-20T11:37:36;5.32;;;2.15;;
27127;SDS011;14660;49.008;8.390;2022-11-20T11:40:04;5.88;;;1.95;;
27127;SDS011;14660;49.008;8.390;2022-11-20T11:42:40;6.13;;;2.03;;
27127;SDS011;14660;49.008;8.390;2022-11-20T11:45:21;4.75;;;2.22;;
27127;SDS011;14660;49.008;8.390;2022-11-20T11:47:50;3.88;;;2.30;;
27127;SDS011;14660;49.008;8.390;2022-11-20T11:50:22;4.78;;;1.52;;
27127;SDS011;14660;49.008;8.390;2022-11-20T11:56:12;2.28;;;1.60;;
27127;SDS011;14660;49.008;8.390;2022-11-20T12:16:20;4.57;;;2.55;;
27127;SDS011;14660;49.008;8.390;2022-11-20T12:18:48;6.85;;;2.88;;
27127;SDS011;14660;49.008;8.390;2022-11-20T12:30:16;2.38;;;1.50;;
27127;SDS011;14660;49.008;8.390;2022-11-20T13:00:19;2.63;;;1.00;;
27127;SDS011;14660;49.008;8.390;2022-11-20T13:08:50;2.55;;;0.82;;
27127;SDS011;14660;49.008;8.390;2022-11-20T13:20:24;2.88;;;0.70;;
27127;SDS011;14660;49.008;8.390;2022-11-20T13:22:53;2.40;;;1.15;;
27127;SDS011;14660;49.008;8.390;2022-11-20T13:30:56;1.88;;;1.10;;
27127;SDS011;14660;49.008;8.390;2022-11-20T13:36:26;11.35;;;3.33;;
27127;SDS011;14660;49.008;8.390;2022-11-20T13:39:03;4.88;;;1.73;;
27127;SDS011;14660;49.008;8.390;2022-11-20T13:49:53;3.65;;;1.27;;
27127;SDS011;14660;49.008;8.390;2022-11-20T14:02:02;3.15;;;1.35;;
27127;SDS011;14660;49.008;8.390;2022-11-20T14:04:34;3.65;;;1.30;;
27127;SDS011;14660;49.008;8.390;2022-11-20T14:07:08;2.95;;;0.93;;
27127;SDS011;14660;49.008;8.390;2022-11-20T14:09:35;6.05;;;2.42;;
27127;SDS011;14660;49.008;8.390;2022-11-20T14:12:02;4.95;;;1.15;;
27127;SDS011;14660;49.008;8.390;2022-11-20T14:14:30;1.02;;;0.68;;
27127;SDS011;14660;49.008;8.390;2022-11-20T14:17:21;4.93;;;1.10;;
27127;SDS011;14660;49.008;8.390;2022-11-20T14:19:50;2.80;;;1.20;;
27127;SDS011;14660;49.008;8.390;2022-11-20T14:22:25;2.23;;;0.60;;
27127;SDS011;14660;49.008;8.390;2022-11-20T14:27:56;3.45;;;1.00;;
27127;SDS011;14660;49.008;8.390;2022-11-20T14:30:26;4.35;;;1.40;;
27127;SDS011;14660;49.008;8.390;2022-11-20T14:33:12;4.13;;;1.13;;
27127;SDS011;14660;49.008;8.390;2022-11-20T14:35:48;2.42;;;1.88;;
27127;SDS011;14660;49.008;8.390;2022-11-20T14:38:26;3.33;;;1.58;;
27127;SDS011;14660;49.008;8.390;2022-11-20T14:41:05;1.88;;;1.17;;
27127;SDS011;14660;49.008;8.390;2022-11-20T14:43:33;5.93;;;3.65;;
27127;SDS011;14660;49.008;8.390;2022-11-20T14:48:57;2.85;;;2.03;;
27127;SDS011;14660;49.008;8.390;2022-11-20T14:54:20;3.63;;;2.08;;
27127;SDS011;14660;49.008;8.390;2022-11-20T14:59:48;5.13;;;2.10;;
27127;SDS011;14660;49.008;8.390;2022-11-20T15:02:15;2.80;;;1.58;;
27127;SDS011;14660;49.008;8.390;2022-11-20T15:07:35;3.25;;;1.88;;
27127;SDS011;14660;49.008;8.390;2022-11-20T15:10:10;2.28;;;1.63;;
27127;SDS011;14660;49.008;8.390;2022-11-20T15:13:02;2.72;;;1.75;;
27127;SDS011;14660;49.008;8.390;2022-11-20T15:18:45;3.85;;;1.48;;
27127;SDS011;14660;49.008;8.390;2022-11-20T15:21:13;3.08;;;1.30;;
27127;SDS011;14660;49.008;8.390;2022-11-20T15:23:42;3.40;;;1.25;;
27127;SDS011;14660;49.008;8.390;2022-11-20T15:26:11;4.57;;;1.63;;
27127;SDS011;14660;49.008;8.390;2022-11-20T15:28:46;3.80;;;2.72;;
27127;SDS011;14660;49.008;8.390;2022-11-20T15:31:16;5.15;;;2.15;;
27127;SDS011;14660;49.008;8.390;2022-11-20T15:33:47;1.97;;;1.40;;
27127;SDS011;14660;49.008;8.390;2022-11-20T15:36:16;4.05;;;2.08;;
27127;SDS011;14660;49.008;8.390;2022-11-20T15:38:43;3.17;;;1.70;;
27127;SDS011;14660;49.008;8.390;2022-11-20T15:41:10;5.22;;;2.20;;
27127;SDS011;14660;49.008;8.390;2022-11-20T15:43:37;4.32;;;2.17;;
27127;SDS011;14660;49.008;8.390;2022-11-20T15:46:06;5.60;;;3.40;;
27127;SDS011;14660;49.008;8.390;2022-11-20T15:48:42;6.40;;;3.45;;
27127;SDS011;14660;49.008;8.390;2022-11-20T15:51:27;4.28;;;2.75;;
27127;SDS011;14660;49.008;8.390;2022-11-20T15:56:57;5.20;;;2.58;;
27127;SDS011;14660;49.008;8.390;2022-11-20T15:59:25;5.38;;;2.30;;
27127;SDS011;14660;49.008;8.390;2022-11-20T16:01:52;3.92;;;2.53;;
27127;SDS011;14660;49.008;8.390;2022-11-20T16:04:18;8.02;;;2.08;;
27127;SDS011;14660;49.008;8.390;2022-11-20T16:06:45;3.72;;;2.35;;
27127;SDS011;14660;49.008;8.390;2022-11-20T16:09:12;3.90;;;2.05;;
27127;SDS011;14660;49.008;8.390;2022-11-20T16:11:38;4.82;;;1.80;;
27127;SDS011;14660;49.008;8.390;2022-11-20T16:14:06;2.95;;;1.40;;
27127;SDS011;14660;49.008;8.390;2022-11-20T16:16:51;6.60;;;2.75;;
27127;SDS011;14660;49.008;8.390;2022-11-20T16:19:16;5.97;;;1.75;;
27127;SDS011;14660;49.008;8.390;2022-11-20T16:21:45;4.93;;;2.60;;
27127;SDS011;14660;49.008;8.390;2022-11-20T16:24:12;3.33;;;1.65;;
27127;SDS011;14660;49.008;8.390;2022-11-20T16:26:41;4.25;;;2.08;;
27127;SDS011;14660;49.008;8.390;2022-11-20T16:29:08;3.50;;;1.83;;
27127;SDS011;14660;49.008;8.390;2022-11-20T16:31:36;2.67;;;1.50;;
27127;SDS011;14660;49.008;8.390;2022-11-20T16:34:03;3.85;;;1.52;;
27127;SDS011;14660;49.008;8.390;2022-11-20T16:36:32;2.33;;;1.55;;
27127;SDS011;14660;49.008;8.390;2022-11-20T16:39:00;11.68;;;4.93;;
27127;SDS011;14660;49.008;8.390;2022-11-20T16:41:40;7.72;;;4.75;;
27127;SDS011;14660;49.008;8.390;2022-11-20T16:44:14;4.75;;;2.97;;
27127;SDS011;14660;49.008;8.390;2022-11-20T16:46:41;8.10;;;4.38;;
27127;SDS011;14660;49.008;8.390;2022-11-20T16:49:11;7.43;;;4.05;;
27127;SDS011;14660;49.008;8.390;2022-11-20T16:51:39;4.63;;;2.70;;
27127;SDS011;14660;49.008;8.390;2022-11-20T16:54:09;5.43;;;2.67;;
27127;SDS011;14660;49.008;8.390;2022-11-20T16:56:36;4.82;;;2.80;;
27127;SDS011;14660;49.008;8.390;2022-11-20T16:59:04;7.40;;;4.50;;
27127;SDS011;14660;49.008;8.390;2022-11-20T17:01:34;6.05;;;4.28;;
27127;SDS011;14660;49.008;8.390;2022-11-20T17:04:04;8.70;;;4.18;;
27127;SDS011;14660;49.008;8.390;2022-11-20T17:06:33;8.35;;;6.00;;
27127;SDS011;14660;49.008;8.390;2022-11-20T17:09:01;14.23;;;9.38;;
27127;SDS011;14660;49.008;8.390;2022-11-20T17:11:29;9.73;;;6.72;;
27127;SDS011;14660;49.008;8.390;2022-11-20T17:13:56;8.43;;;5.40;;
27127;SDS011;14660;49.008;8.390;2022-11-20T17:16:41;14.07;;;9.55;;
27127;SDS011;14660;49.008;8.390;2022-11-20T17:19:08;12.13;;;8.32;;
27127;SDS011;14660;49.008;8.390;2022-11-20T17:21:35;10.50;;;6.70;;
27127;SDS011;14660;49.008;8.390;2022-11-20T17:24:11;3.67;;;2.33;;
27127;SDS011;14660;49.008;8.390;2022-11-20T17:26:41;4.85;;;2.42;;
27127;SDS011;14660;49.008;8.390;2022-11-20T17:29:12;4.20;;;2.72;;
27127;SDS011;14660;49.008;8.390;2022-11-20T17:31:41;3.03;;;2.05;;
27127;SDS011;14660;49.008;8.390;2022-11-20T17:34:12;3.80;;;2.42;;
27127;SDS011;14660;49.008;8.390;2022-11-20T17:36:39;3.05;;;2.75;;
27127;SDS011;14660;49.008;8.390;2022-11-20T17:39:10;3.83;;;3.53;;
27127;SDS011;14660;49.008;8.390;2022-11-20T17:41:38;5.80;;;2.20;;
27127;SDS011;14660;49.008;8.390;2022-11-20T17:44:05;4.90;;;1.98;;
27127;SDS011;14660;49.008;8.390;2022-11-20T17:46:34;4.35;;;2.30;;
27127;SDS011;14660;49.008;8.390;2022-11-20T17:49:03;4.22;;;2.63;;
27127;SDS011;14660;49.008;8.390;2022-11-20T17:51:32;6.68;;;3.50;;
27127;SDS011;14660;49.008;8.390;2022-11-20T17:54:02;4.88;;;2.85;;
27127;SDS011;14660;49.008;8.390;2022-11-20T17:56:33;5.75;;;2.05;;
27127;SDS011;14660;49.008;8.390;2022-11-20T17:59:20;4.53;;;1.63;;
27127;SDS011;14660;49.008;8.390;2022-11-20T18:01:47;3.58;;;2.03;;
27127;SDS011;14660;49.008;8.390;2022-11-20T18:04:15;4.78;;;2.28;;
27127;SDS011;14660;49.008;8.390;2022-11-20T18:06:45;4.93;;;1.85;;
27127;SDS011;14660;49.008;8.390;2022-11-20T18:09:11;5.68;;;2.22;;
27127;SDS011;14660;49.008;8.390;2022-11-20T18:11:42;3.60;;;2.20;;
27127;SDS011;14660;49.008;8.390;2022-11-20T18:14:14;9.75;;;5.55;;
27127;SDS011;14660;49.008;8.390;2022-11-20T18:17:13;13.37;;;7.70;;
27127;SDS011;14660;49.008;8.390;2022-11-20T18:19:40;9.30;;;5.18;;
27127;SDS011;14660;49.008;8.390;2022-11-20T18:22:10;10.20;;;5.20;;
27127;SDS011;14660;49.008;8.390;2022-11-20T18:24:38;13.15;;;5.38;;
27127;SDS011;14660;49.008;8.390;2022-11-20T18:27:06;6.28;;;4.13;;
27127;SDS011;14660;49.008;8.390;2022-11-20T18:29:33;8.65;;;4.28;;
27127;SDS011;14660;49.008;8.390;2022-11-20T18:31:59;10.82;;;5.05;;
27127;SDS011;14660;49.008;8.390;2022-11-20T18:34:26;3.42;;;2.50;;
27127;SDS011;14660;49.008;8.390;2022-11-20T18:36:53;4.90;;;2.22;;